createdAt,value
2023-02-24T00:01:16.087Z,6.97
2023-02-24T00:06:19.863Z,8.90
2023-02-24T00:11:22.544Z,8.10
2023-02-24T00:16:24.940Z,7.40
2023-02-24T00:21:29.477Z,7.70
2023-02-24T00:26:32.017Z,5.83
2023-02-24T00:31:34.689Z,4.83
2023-02-24T00:36:38.593Z,5.47
2023-02-24T00:41:43.471Z,4.97
2023-02-24T00:46:48.272Z,4.67
2023-02-24T00:51:54.494Z,5.33
2023-02-24T00:56:57.648Z,4.53
2023-02-24T01:02:00.209Z,4.27
2023-02-24T01:07:04.324Z,6.57
2023-02-24T01:12:26.483Z,5.80
2023-02-24T01:17:28.891Z,7.20
2023-02-24T01:22:34.318Z,7.33
2023-02-24T01:27:37.720Z,5.90
2023-02-24T01:32:40.060Z,6.03
2023-02-24T01:37:43.708Z,5.43
2023-02-24T01:42:47.946Z,5.07
2023-02-24T01:47:51.308Z,5.53
2023-02-24T01:52:59.131Z,6.67
2023-02-24T01:58:05.063Z,6.20
2023-02-24T02:03:12.516Z,6.97
2023-02-24T02:08:18.748Z,7.80
2023-02-24T02:13:21.680Z,6.50
2023-02-24T02:18:31.587Z,6.17
2023-02-24T02:24:04.502Z,6.80
2023-02-24T02:29:28.673Z,6.90
2023-02-24T02:34:42.130Z,5.73
2023-02-24T02:39:52.848Z,6.93
2023-02-24T02:45:05.416Z,5.90
2023-02-24T02:50:18.808Z,7.40
2023-02-24T02:55:26.143Z,7.97
2023-02-24T03:00:35.425Z,6.63
2023-02-24T03:05:47.334Z,7.27
2023-02-24T03:10:51.941Z,5.67
2023-02-24T03:15:55.236Z,7.33
2023-02-24T03:21:07.281Z,7.30
2023-02-24T03:26:19.058Z,8.30
2023-02-24T03:31:27.959Z,8.03
2023-02-24T03:36:31.544Z,7.00
2023-02-24T03:41:41.593Z,5.97
2023-02-24T03:46:44.484Z,5.97
2023-02-24T03:52:02.780Z,6.73
2023-02-24T03:57:19.142Z,6.70
2023-02-24T04:02:25.444Z,6.87
2023-02-24T04:07:41.636Z,6.23
2023-02-24T04:12:51.151Z,6.07
2023-02-24T04:17:57.698Z,5.63
2023-02-24T04:23:08.829Z,5.30
2023-02-24T04:28:11.872Z,5.57
2023-02-24T04:33:14.429Z,5.20
2023-02-24T04:38:18.249Z,5.70
2023-02-24T04:43:20.790Z,5.60
2023-02-24T04:48:22.991Z,5.63
2023-02-24T04:53:27.613Z,5.27
2023-02-24T04:58:29.918Z,6.30
2023-02-24T05:03:32.393Z,6.50
2023-02-24T05:08:36.506Z,7.40
2023-02-24T05:13:40.418Z,7.03
2023-02-24T05:18:45.032Z,6.30
2023-02-24T05:23:51.955Z,6.53
2023-02-24T05:28:56.744Z,8.50
2023-02-24T05:34:01.752Z,7.70
2023-02-24T05:39:07.771Z,6.27
2023-02-24T05:44:13.850Z,8.27
2023-02-24T05:49:17.752Z,6.67
2023-02-24T05:54:22.885Z,6.13
2023-02-24T05:59:25.527Z,7.00
2023-02-24T06:04:39.707Z,6.27
2023-02-24T06:09:46.413Z,6.50
2023-02-24T06:14:48.721Z,6.37
2023-02-24T06:19:53.261Z,6.17
2023-02-24T06:24:57.739Z,5.73
2023-02-24T06:30:01.053Z,6.93
2023-02-24T06:35:03.476Z,8.47
2023-02-24T06:40:16.054Z,7.60
2023-02-24T06:45:18.503Z,9.07
2023-02-24T06:50:22.196Z,6.90
2023-02-24T06:55:28.859Z,7.40
2023-02-24T07:00:39.394Z,6.90
2023-02-24T07:05:50.436Z,7.30
2023-02-24T07:11:00.046Z,7.20
2023-02-24T07:16:07.466Z,7.97
2023-02-24T07:21:11.920Z,8.57
2023-02-24T07:26:17.201Z,9.23
2023-02-24T07:31:23.252Z,8.40
2023-02-24T07:36:30.454Z,9.40
2023-02-24T07:41:34.392Z,9.50
2023-02-24T07:46:37.380Z,9.43
2023-02-24T07:51:39.874Z,11.47
2023-02-24T07:56:48.975Z,13.30
2023-02-24T08:01:51.296Z,12.23
2023-02-24T08:06:57.724Z,12.07
2023-02-24T08:12:01.381Z,10.93
2023-02-24T08:17:05.690Z,10.87
2023-02-24T08:22:20.499Z,11.60
2023-02-24T08:27:30.637Z,12.17
2023-02-24T08:32:37.558Z,11.30
2023-02-24T08:37:47.302Z,10.27
2023-02-24T08:42:52.464Z,10.57
2023-02-24T08:48:00.757Z,10.77
2023-02-24T08:53:03.345Z,11.80
2023-02-24T08:58:11.319Z,10.87
2023-02-24T09:03:16.564Z,11.80
2023-02-24T09:08:24.253Z,11.83
2023-02-24T09:13:33.207Z,12.60
2023-02-24T09:18:39.687Z,10.80
2023-02-24T09:23:46.207Z,10.20
2023-02-24T09:28:54.901Z,11.30
2023-02-24T09:34:01.831Z,11.63
2023-02-24T09:39:14.919Z,10.07
2023-02-24T09:44:19.430Z,9.70
2023-02-24T09:49:25.425Z,9.97
2023-02-24T09:54:32.089Z,13.93
2023-02-24T09:59:51.253Z,10.60
2023-02-24T10:05:07.742Z,9.83
2023-02-24T10:10:23.510Z,8.33
2023-02-24T10:15:59.528Z,8.90
2023-02-24T10:21:18.256Z,7.90
2023-02-24T10:26:31.915Z,8.13
2023-02-24T10:31:46.415Z,10.37
2023-02-24T10:36:50.641Z,9.67
2023-02-24T10:41:57.821Z,8.07
2023-02-24T10:47:12.591Z,5.90
2023-02-24T10:52:36.866Z,5.97
2023-02-24T10:57:58.614Z,6.57
2023-02-24T11:03:10.750Z,6.20
2023-02-24T11:08:36.750Z,6.85
2023-02-24T11:13:56.358Z,5.50
2023-02-24T11:19:00.393Z,6.35
2023-02-24T11:24:03.667Z,5.93
2023-02-24T11:29:26.718Z,6.25
2023-02-24T11:34:36.538Z,6.47
2023-02-24T11:39:50.896Z,6.55
2023-02-24T11:44:58.387Z,6.68
2023-02-24T11:50:15.351Z,7.93
2023-02-24T11:55:27.980Z,9.32
2023-02-24T12:00:34.779Z,10.50
2023-02-24T12:05:42.396Z,9.13
2023-02-24T12:10:50.678Z,9.40
2023-02-24T12:15:58.162Z,8.73
2023-02-24T12:21:07.324Z,8.77
2023-02-24T12:26:20.523Z,8.27
2023-02-24T12:31:33.405Z,9.38
2023-02-24T12:36:52.593Z,8.03
2023-02-24T12:42:07.646Z,8.07
2023-02-24T12:47:14.121Z,8.10
2023-02-24T12:52:26.877Z,7.83
2023-02-24T12:57:33.636Z,8.47
2023-02-24T13:02:48.920Z,9.47
2023-02-24T13:08:12.552Z,9.47
2023-02-24T13:13:24.953Z,10.10
2023-02-24T13:18:29.034Z,10.97
2023-02-24T13:23:33.179Z,8.80
2023-02-24T13:28:38.680Z,8.30
2023-02-24T13:33:43.205Z,9.67
2023-02-24T13:38:48.697Z,9.77
2023-02-24T13:43:58.223Z,9.63
2023-02-24T13:49:24.340Z,9.07
2023-02-24T13:55:02.071Z,9.30
2023-02-24T14:00:11.693Z,9.13
2023-02-24T14:05:25.172Z,9.43
2023-02-24T14:10:31.812Z,9.37
2023-02-24T14:15:34.900Z,9.83
2023-02-24T14:20:39.916Z,8.73
2023-02-24T14:25:43.997Z,7.73
2023-02-24T14:30:53.463Z,8.20
2023-02-24T14:35:55.730Z,8.80
2023-02-24T14:41:08.984Z,8.57
2023-02-24T14:46:10.916Z,10.20
2023-02-24T14:51:17.864Z,8.47
2023-02-24T14:56:25.274Z,9.43
2023-02-24T15:01:35.194Z,9.93
2023-02-24T15:06:42.390Z,10.90
2023-02-24T15:11:46.718Z,10.47
2023-02-24T15:16:51.119Z,9.67
2023-02-24T15:21:53.205Z,9.73
2023-02-24T15:26:59.274Z,8.90
2023-02-24T15:32:07.705Z,9.87
2023-02-24T15:37:17.480Z,10.43
2023-02-24T15:42:28.757Z,10.50
2023-02-24T15:47:34.758Z,12.60
2023-02-24T15:52:38.343Z,11.43
2023-02-24T15:57:42.386Z,10.70
2023-02-24T16:02:45.245Z,12.00
2023-02-24T16:07:49.491Z,11.47
2023-02-24T16:12:55.912Z,11.47
2023-02-24T16:18:00.256Z,11.83
2023-02-24T16:23:06.016Z,12.37
2023-02-24T16:28:14.850Z,12.33
2023-02-24T16:33:19.231Z,12.80
2023-02-24T16:38:27.100Z,13.40
2023-02-24T16:43:33.864Z,13.07
2023-02-24T16:48:40.306Z,12.03
2023-02-24T16:53:43.142Z,13.43
2023-02-24T16:58:47.196Z,12.77
2023-02-24T17:03:52.525Z,12.30
2023-02-24T17:08:54.841Z,15.33
2023-02-24T17:13:59.897Z,16.60
2023-02-24T17:19:02.536Z,12.93
2023-02-24T17:24:05.088Z,12.60
2023-02-24T17:29:09.504Z,15.43
2023-02-24T17:34:12.986Z,15.17
2023-02-24T17:39:15.946Z,15.37
2023-02-24T17:44:20.115Z,17.27
2023-02-24T17:49:22.939Z,13.20
2023-02-24T17:54:26.118Z,14.37
2023-02-24T17:59:31.536Z,13.40
2023-02-24T18:04:36.110Z,13.37
2023-02-24T18:09:39.662Z,4.70
2023-02-24T18:14:48.355Z,9.23
2023-02-24T18:19:55.977Z,4.00
2023-02-24T18:24:59.981Z,6.70
2023-02-24T18:30:05.178Z,8.10
2023-02-24T18:35:08.791Z,5.83
2023-02-24T18:40:16.570Z,5.70
2023-02-24T18:45:22.193Z,4.37
2023-02-24T18:50:26.226Z,3.70
2023-02-24T18:55:30.547Z,3.83
2023-02-24T19:00:39.782Z,3.33
2023-02-24T19:05:43.226Z,3.37
2023-02-24T19:10:47.447Z,3.83
2023-02-24T19:15:52.210Z,3.70
2023-02-24T19:20:55.967Z,5.20
2023-02-24T19:26:00.567Z,6.30
2023-02-24T19:31:05.212Z,7.33
2023-02-24T19:36:10.230Z,5.97
2023-02-24T19:41:15.606Z,8.30
2023-02-24T19:46:22.427Z,8.20
2023-02-24T19:51:28.162Z,7.00
2023-02-24T19:56:35.994Z,8.20
2023-02-24T20:01:43.853Z,7.73
2023-02-24T20:06:48.787Z,6.83
2023-02-24T20:11:54.992Z,5.70
2023-02-24T20:17:00.587Z,6.00
2023-02-24T20:22:05.170Z,5.43
2023-02-24T20:27:14.097Z,5.43
2023-02-24T20:32:20.648Z,4.77
2023-02-24T20:37:24.526Z,5.50
2023-02-24T20:42:28.840Z,4.77
2023-02-24T20:47:33.840Z,3.07
2023-02-24T20:52:38.307Z,2.40
2023-02-24T20:57:42.336Z,3.10
2023-02-24T21:02:47.599Z,2.80
2023-02-24T21:07:51.822Z,2.53
2023-02-24T21:12:55.095Z,3.43
2023-02-24T21:17:59.411Z,4.10
2023-02-24T21:23:02.021Z,3.87
2023-02-24T21:28:05.012Z,3.60
2023-02-24T21:33:09.582Z,2.43
2023-02-24T21:38:12.647Z,1.80
2023-02-24T21:43:15.082Z,1.80
2023-02-24T21:48:19.545Z,1.70
2023-02-24T21:53:23.944Z,1.47
2023-02-24T21:58:26.756Z,1.67
2023-02-24T22:03:31.319Z,1.40
2023-02-24T22:08:33.805Z,1.43
2023-02-24T22:13:36.416Z,1.43
2023-02-24T22:18:40.395Z,1.80
2023-02-24T22:23:42.944Z,1.93
2023-02-24T22:28:48.022Z,1.00
2023-02-24T22:33:52.148Z,1.10
2023-02-24T22:38:55.595Z,1.40
2023-02-24T22:43:58.017Z,1.40
2023-02-24T22:49:02.656Z,2.03
2023-02-24T22:54:05.836Z,1.50
2023-02-24T22:59:08.219Z,1.60
2023-02-24T23:04:16.095Z,2.20
2023-02-24T23:09:20.951Z,2.57
2023-02-24T23:14:22.949Z,2.83
2023-02-24T23:19:26.422Z,3.67
2023-02-24T23:24:28.524Z,4.00
2023-02-24T23:29:31.809Z,1.90
2023-02-24T23:34:35.296Z,1.47
2023-02-24T23:39:37.292Z,3.67
2023-02-24T23:44:39.852Z,3.70
2023-02-24T23:49:48.556Z,3.60
2023-02-24T23:54:52.789Z,4.70
2023-02-24T23:59:55.189Z,5.23
